createdAt,value
2019-04-23T00:01:49.296Z,94.50
2019-04-23T00:04:18.054Z,95.50
2019-04-23T00:07:13.033Z,96.60
2019-04-23T00:09:21.122Z,96.00
2019-04-23T00:11:49.545Z,95.00
2019-04-23T00:16:45.934Z,95.90
2019-04-23T00:19:10.368Z,96.70
2019-04-23T00:21:48.304Z,96.10
2019-04-23T00:24:54.888Z,95.20
2019-04-23T00:27:10.186Z,96.60
2019-04-23T00:29:28.563Z,95.70
2019-04-23T00:32:00.980Z,96.00
2019-04-23T00:34:24.974Z,94.90
2019-04-23T00:36:51.592Z,94.70
2019-04-23T00:39:23.732Z,95.70
2019-04-23T00:41:54.625Z,96.50
2019-04-23T00:44:22.872Z,95.30
2019-04-23T00:46:46.563Z,95.00
2019-04-23T00:49:19.818Z,95.90
2019-04-23T00:51:58.466Z,96.00
2019-04-23T00:54:18.573Z,96.40
2019-04-23T00:56:47.592Z,96.40
2019-04-23T00:59:15.310Z,96.80
2019-04-23T01:01:56.705Z,95.60
2019-04-23T01:04:04.818Z,94.90
2019-04-23T01:06:37.914Z,92.60
2019-04-23T01:09:16.700Z,93.70
2019-04-23T01:11:34.166Z,93.60
2019-04-23T01:14:13.409Z,94.10
2019-04-23T01:16:32.864Z,95.10
2019-04-23T01:19:06.837Z,96.70
2019-04-23T01:21:15.815Z,95.20
2019-04-23T01:23:53.818Z,94.40
2019-04-23T01:26:35.588Z,94.20
2019-04-23T01:29:07.068Z,93.10
2019-04-23T01:31:41.039Z,92.90
2019-04-23T01:34:13.454Z,93.20
2019-04-23T01:36:51.649Z,92.40
2019-04-23T01:39:06.201Z,92.00
2019-04-23T01:41:33.600Z,91.70
2019-04-23T01:44:01.652Z,90.60
2019-04-23T01:46:36.128Z,90.40
2019-04-23T01:48:59.799Z,88.70
2019-04-23T01:51:38.083Z,88.60
2019-04-23T01:53:57.358Z,88.80
2019-04-23T01:59:00.250Z,84.20
2019-04-23T02:01:26.986Z,83.90
2019-04-23T02:03:57.677Z,82.30
2019-04-23T02:06:20.598Z,80.70
2019-04-23T02:08:55.272Z,82.50
2019-04-23T02:11:19.977Z,86.10
2019-04-23T02:16:24.750Z,87.60
2019-04-23T02:18:57.664Z,90.60
2019-04-23T02:23:47.996Z,91.20
2019-04-23T02:26:26.309Z,91.90
2019-04-23T02:28:53.471Z,92.50
2019-04-23T02:36:17.944Z,88.40
2019-04-23T02:38:49.740Z,88.90
2019-04-23T02:41:19.811Z,89.50
2019-04-23T02:43:57.030Z,90.10
2019-04-23T02:46:09.799Z,88.90
2019-04-23T02:51:21.626Z,89.60
2019-04-23T02:54:08.381Z,87.90
2019-04-23T02:56:21.539Z,89.90
2019-04-23T03:01:21.858Z,90.60
2019-04-23T03:03:42.803Z,91.30
2019-04-23T03:06:05.515Z,92.00
2019-04-23T03:08:42.706Z,90.50
2019-04-23T03:11:07.730Z,92.40
2019-04-23T03:13:48.262Z,91.10
2019-04-23T03:21:42.578Z,91.50
2019-04-23T03:24:28.548Z,92.30
2019-04-23T03:29:16.280Z,92.00
2019-04-23T03:34:56.045Z,92.70
2019-04-23T03:37:00.275Z,92.50
2019-04-23T03:39:05.300Z,91.70
2019-04-23T03:41:32.424Z,91.50
2019-04-23T03:43:49.070Z,91.20
2019-04-23T03:48:53.204Z,91.00
2019-04-23T03:51:28.780Z,91.70
2019-04-23T03:58:47.475Z,92.30
2019-04-23T04:01:27.923Z,93.40
2019-04-23T04:04:12.390Z,92.60
2019-04-23T04:06:30.489Z,92.60
2019-04-23T04:08:47.407Z,92.70
2019-04-23T04:11:14.352Z,93.20
2019-04-23T04:18:44.240Z,93.40
2019-04-23T04:21:14.568Z,92.80
2019-04-23T04:23:42.742Z,91.70
2019-04-23T04:26:05.255Z,92.10
2019-04-23T04:28:52.269Z,91.70
2019-04-23T04:31:03.323Z,90.90
2019-04-23T04:41:14.297Z,90.20
2019-04-23T04:48:22.958Z,91.10
2019-04-23T04:51:00.782Z,91.70
2019-04-23T04:56:03.121Z,92.40
2019-04-23T04:58:23.871Z,92.40
2019-04-23T05:06:09.989Z,92.70
2019-04-23T05:08:25.435Z,93.40
2019-04-23T05:11:05.340Z,92.70
2019-04-23T05:15:46.760Z,92.70
2019-04-23T05:20:53.447Z,92.90
2019-04-23T05:23:22.987Z,92.60
2019-04-23T05:25:44.788Z,92.50
2019-04-23T05:30:46.588Z,92.50
2019-04-23T05:38:18.580Z,95.20
2019-04-23T05:40:45.240Z,95.60
2019-04-23T05:43:14.256Z,94.50
2019-04-23T05:48:15.745Z,94.70
2019-04-23T05:50:52.748Z,94.80
2019-04-23T05:53:11.408Z,94.40
2019-04-23T05:55:39.812Z,94.70
2019-04-23T05:58:05.206Z,96.10
2019-04-23T06:00:54.604Z,96.50
2019-04-23T06:03:12.118Z,97.20
2019-04-23T06:05:38.748Z,97.70
2019-04-23T06:08:25.287Z,97.40
2019-04-23T06:10:39.579Z,97.80
2019-04-23T06:13:06.331Z,98.00
2019-04-23T06:15:32.169Z,98.40
2019-04-23T06:18:08.083Z,99.00
2019-04-23T06:23:05.739Z,98.70
2019-04-23T06:25:50.209Z,99.10
2019-04-23T06:28:04.780Z,99.30
2019-04-23T06:30:41.917Z,98.80
2019-04-23T06:32:59.593Z,98.50
2019-04-23T06:35:28.971Z,99.10
2019-04-23T06:38:23.017Z,98.60
2019-04-23T06:40:27.415Z,98.80
2019-04-23T06:43:01.001Z,98.50
2019-04-23T06:45:22.092Z,98.80
2019-04-23T06:47:56.032Z,99.00
2019-04-23T06:50:19.522Z,98.80
2019-04-23T06:52:45.661Z,99.10
2019-04-23T06:55:20.362Z,99.90
2019-04-23T06:57:48.143Z,99.90
2019-04-23T07:00:37.685Z,99.90
2019-04-23T07:02:49.479Z,99.90
2019-04-23T07:05:33.073Z,99.90
2019-04-23T07:07:55.215Z,99.90
2019-04-23T07:10:13.415Z,99.90
2019-04-23T07:12:42.293Z,99.90
2019-04-23T07:15:24.968Z,99.90
2019-04-23T07:17:34.963Z,99.90
2019-04-23T07:20:08.304Z,99.90
2019-04-23T07:22:36.864Z,99.90
2019-04-23T07:27:31.781Z,99.90
2019-04-23T07:30:08.394Z,99.90
2019-04-23T07:32:32.868Z,99.90
2019-04-23T07:37:35.637Z,99.90
2019-04-23T07:40:22.944Z,99.90
2019-04-23T07:42:42.092Z,99.90
2019-04-23T07:45:27.994Z,99.90
2019-04-23T07:50:43.831Z,99.90
2019-04-23T07:53:12.874Z,99.90
2019-04-23T07:58:17.219Z,99.90
2019-04-23T08:00:45.557Z,99.90
2019-04-23T08:10:43.110Z,99.90
2019-04-23T08:13:14.443Z,99.90
2019-04-23T08:15:35.328Z,99.90
2019-04-23T08:18:07.071Z,99.90
2019-04-23T08:20:36.991Z,99.90
2019-04-23T08:23:10.149Z,99.90
2019-04-23T08:26:03.160Z,99.90
2019-04-23T08:28:37.168Z,99.90
2019-04-23T08:30:53.074Z,99.90
2019-04-23T08:33:24.757Z,99.90
2019-04-23T08:35:57.786Z,99.90
2019-04-23T08:38:26.603Z,99.90
2019-04-23T08:40:57.193Z,99.90
2019-04-23T08:45:52.821Z,99.90
2019-04-23T08:48:27.915Z,99.90
2019-04-23T08:50:55.900Z,99.90
2019-04-23T08:56:05.003Z,99.90
2019-04-23T08:58:27.325Z,99.90
2019-04-23T09:05:55.903Z,99.70
2019-04-23T09:08:32.794Z,99.90
2019-04-23T09:10:56.722Z,99.90
2019-04-23T09:13:43.825Z,99.90
2019-04-23T09:15:51.496Z,99.90
2019-04-23T09:18:16.163Z,99.90
2019-04-23T09:20:37.788Z,99.90
2019-04-23T09:23:11.562Z,99.90
2019-04-23T09:25:48.207Z,99.90
2019-04-23T09:28:16.043Z,99.40
2019-04-23T09:30:52.327Z,99.90
2019-04-23T09:33:25.930Z,99.90
2019-04-23T09:35:52.448Z,99.90
2019-04-23T09:38:25.322Z,99.90
2019-04-23T09:41:04.553Z,99.90
2019-04-23T09:43:40.286Z,99.80
2019-04-23T09:48:44.259Z,98.70
2019-04-23T09:51:10.153Z,97.30
2019-04-23T09:53:34.474Z,96.80
2019-04-23T09:55:59.733Z,97.00
2019-04-23T09:58:30.068Z,97.80
2019-04-23T10:03:50.959Z,98.60
2019-04-23T10:06:12.354Z,98.40
2019-04-23T10:08:39.523Z,99.50
2019-04-23T10:11:05.102Z,97.20
2019-04-23T10:13:34.308Z,97.80
2019-04-23T10:16:02.291Z,98.10
2019-04-23T10:18:30.921Z,98.80
2019-04-23T10:20:59.358Z,97.90
2019-04-23T10:23:27.250Z,98.40
2019-04-23T10:25:54.196Z,98.90
2019-04-23T10:28:24.591Z,95.80
2019-04-23T10:30:51.621Z,96.40
2019-04-23T10:33:19.230Z,96.00
2019-04-23T10:35:55.173Z,96.00
2019-04-23T10:38:19.872Z,95.80
2019-04-23T10:40:48.448Z,96.30
2019-04-23T10:43:15.049Z,94.70
2019-04-23T10:46:03.959Z,94.90
2019-04-23T10:49:07.360Z,96.40
2019-04-23T10:51:46.927Z,96.70
2019-04-23T10:54:23.958Z,94.90
2019-04-23T10:56:40.867Z,93.40
2019-04-23T10:59:03.246Z,94.70
2019-04-23T11:01:35.897Z,94.60
2019-04-23T11:06:41.099Z,90.20
2019-04-23T11:09:18.697Z,88.20
2019-04-23T11:11:34.482Z,90.30
2019-04-23T11:14:09.667Z,88.60
2019-04-23T11:16:49.278Z,86.30
2019-04-23T11:19:19.244Z,87.00
2019-04-23T11:21:42.857Z,85.90
2019-04-23T11:24:12.894Z,86.20
2019-04-23T11:26:34.359Z,86.10
2019-04-23T11:29:07.647Z,84.70
2019-04-23T11:31:35.360Z,80.90
2019-04-23T11:36:47.931Z,76.80
2019-04-23T11:43:55.055Z,77.70
2019-04-23T11:46:39.813Z,76.90
2019-04-23T11:56:35.345Z,71.60
2019-04-23T11:58:47.581Z,71.70
2019-04-23T12:01:40.897Z,69.20
2019-04-23T12:04:07.281Z,65.60
2019-04-23T12:06:45.929Z,59.40
2019-04-23T12:14:42.219Z,59.60
2019-04-23T12:17:31.681Z,60.70
2019-04-23T12:19:57.760Z,62.00
2019-04-23T12:22:22.249Z,63.80
2019-04-23T12:27:23.503Z,64.90
2019-04-23T12:29:46.228Z,63.20
2019-04-23T12:37:42.802Z,65.90
2019-04-23T12:40:15.686Z,63.00
2019-04-23T12:45:17.266Z,62.70
2019-04-23T12:50:37.736Z,57.40
2019-04-23T12:55:23.294Z,59.20
2019-04-23T12:57:38.458Z,60.00
2019-04-23T13:02:39.769Z,55.10
2019-04-23T13:05:05.076Z,53.30
2019-04-23T13:07:36.994Z,53.80
2019-04-23T13:10:06.371Z,57.40
2019-04-23T13:17:39.685Z,53.10
2019-04-23T13:22:31.565Z,52.30
2019-04-23T13:24:55.296Z,52.60
2019-04-23T13:27:42.403Z,52.60
2019-04-23T13:30:14.414Z,53.10
2019-04-23T13:32:33.353Z,54.70
2019-04-23T13:35:12.841Z,53.90
2019-04-23T13:37:29.484Z,53.50
2019-04-23T13:39:51.561Z,50.50
2019-04-23T13:42:31.857Z,50.20
2019-04-23T13:44:57.865Z,51.30
2019-04-23T13:47:31.582Z,51.10
2019-04-23T13:49:51.183Z,48.30
2019-04-23T13:52:48.595Z,47.90
2019-04-23T13:57:50.751Z,46.90
2019-04-23T14:02:23.540Z,48.30
2019-04-23T14:05:06.361Z,49.30
2019-04-23T14:07:24.573Z,47.60
2019-04-23T14:09:57.197Z,48.30
2019-04-23T14:12:22.414Z,46.90
2019-04-23T14:17:26.909Z,48.90
2019-04-23T14:19:45.716Z,49.30
2019-04-23T14:22:31.257Z,49.70
2019-04-23T14:24:53.216Z,49.30
2019-04-23T14:27:19.766Z,50.70
2019-04-23T14:29:48.129Z,52.00
2019-04-23T14:32:15.644Z,51.50
2019-04-23T14:34:45.044Z,53.10
2019-04-23T14:37:16.147Z,54.50
2019-04-23T14:39:40.545Z,55.30
2019-04-23T14:44:33.153Z,57.60
2019-04-23T14:47:18.704Z,56.50
2019-04-23T14:52:09.208Z,53.20
2019-04-23T14:55:14.976Z,54.80
2019-04-23T14:57:07.939Z,57.10
2019-04-23T14:59:29.113Z,55.40
2019-04-23T15:02:05.513Z,56.50
2019-04-23T15:04:36.065Z,53.30
2019-04-23T15:12:09.650Z,54.30
2019-04-23T15:14:38.027Z,54.20
2019-04-23T15:19:44.979Z,53.30
2019-04-23T15:24:30.529Z,53.70
2019-04-23T15:29:12.941Z,53.40
2019-04-23T15:37:14.100Z,58.60
2019-04-23T15:41:59.365Z,61.80
2019-04-23T15:44:16.693Z,64.60
2019-04-23T15:46:47.670Z,63.90
2019-04-23T15:54:17.834Z,65.70
2019-04-23T15:56:50.564Z,64.20
2019-04-23T16:01:37.717Z,62.70
2019-04-23T16:03:45.032Z,61.10
2019-04-23T16:06:14.201Z,61.90
2019-04-23T16:11:43.905Z,60.20
2019-04-23T16:14:20.385Z,61.30
2019-04-23T16:16:40.989Z,62.40
2019-04-23T16:24:13.563Z,65.70
2019-04-23T16:26:47.327Z,67.30
2019-04-23T16:29:25.750Z,68.90
2019-04-23T16:31:40.093Z,71.40
2019-04-23T16:34:20.587Z,71.30
2019-04-23T16:36:47.292Z,71.60
2019-04-23T16:39:10.760Z,72.30
2019-04-23T16:41:52.167Z,73.40
2019-04-23T16:44:14.233Z,75.30
2019-04-23T16:46:44.305Z,76.00
2019-04-23T16:49:13.136Z,77.30
2019-04-23T16:51:47.527Z,78.70
2019-04-23T16:54:09.866Z,80.10
2019-04-23T16:59:15.446Z,81.40
2019-04-23T17:01:27.968Z,83.40
2019-04-23T17:04:06.671Z,84.30
2019-04-23T17:06:29.309Z,86.40
2019-04-23T17:08:57.753Z,88.80
2019-04-23T17:11:27.580Z,89.20
2019-04-23T17:14:00.817Z,89.40
2019-04-23T17:16:31.624Z,90.40
2019-04-23T17:18:54.935Z,88.40
2019-04-23T17:21:23.412Z,89.70
2019-04-23T17:24:02.947Z,87.40
2019-04-23T17:26:25.948Z,89.60
2019-04-23T17:28:51.742Z,88.80
2019-04-23T17:31:32.758Z,87.90
2019-04-23T17:33:48.006Z,89.30
2019-04-23T17:36:26.620Z,87.90
2019-04-23T17:38:56.201Z,87.70
2019-04-23T17:41:34.720Z,90.20
2019-04-23T17:44:12.307Z,89.40
2019-04-23T17:46:27.331Z,90.30
2019-04-23T17:48:56.483Z,90.60
2019-04-23T17:51:43.650Z,85.80
2019-04-23T17:53:54.462Z,84.20
2019-04-23T18:01:31.178Z,83.80
2019-04-23T18:03:55.775Z,82.00
2019-04-23T18:11:25.070Z,82.80
2019-04-23T18:13:50.543Z,84.20
2019-04-23T18:18:56.089Z,84.90
2019-04-23T18:21:44.081Z,84.90
2019-04-23T18:24:14.858Z,84.40
2019-04-23T18:26:51.526Z,83.60
2019-04-23T18:29:25.788Z,83.80
2019-04-23T18:32:06.000Z,83.50
2019-04-23T18:34:56.891Z,84.90
2019-04-23T18:37:09.229Z,87.40
2019-04-23T18:39:36.974Z,95.30
2019-04-23T18:42:13.727Z,98.30
2019-04-23T18:44:40.407Z,97.90
2019-04-23T18:47:02.467Z,99.90
2019-04-23T18:49:35.393Z,99.90
2019-04-23T18:51:59.351Z,99.90
2019-04-23T18:54:29.712Z,99.90
2019-04-23T18:57:09.288Z,99.90
2019-04-23T18:59:37.218Z,99.90
2019-04-23T19:02:20.727Z,99.90
2019-04-23T19:07:31.958Z,99.90
2019-04-23T19:10:10.803Z,99.90
2019-04-23T19:12:34.803Z,99.90
2019-04-23T19:14:56.231Z,99.90
2019-04-23T19:17:45.652Z,99.90
2019-04-23T19:19:55.729Z,99.90
2019-04-23T19:22:31.035Z,99.90
2019-04-23T19:27:31.641Z,99.90
2019-04-23T19:29:47.963Z,99.90
2019-04-23T19:32:06.736Z,99.90
2019-04-23T19:39:46.996Z,99.90
2019-04-23T19:42:14.180Z,99.90
2019-04-23T19:47:09.553Z,99.50
2019-04-23T19:49:38.827Z,99.40
2019-04-23T19:52:08.667Z,99.70
2019-04-23T19:57:04.743Z,98.90
2019-04-23T20:02:10.084Z,98.60
2019-04-23T20:04:39.329Z,97.80
2019-04-23T20:07:15.978Z,97.50
2019-04-23T20:09:43.797Z,97.20
2019-04-23T20:14:37.785Z,96.30
2019-04-23T20:17:17.636Z,97.40
2019-04-23T20:19:30.145Z,96.80
2019-04-23T20:24:28.197Z,96.50
2019-04-23T20:26:59.367Z,96.70
2019-04-23T20:29:50.930Z,95.70
2019-04-23T20:37:06.612Z,95.60
2019-04-23T20:39:47.123Z,95.00
2019-04-23T20:42:13.474Z,95.80
2019-04-23T20:49:43.177Z,95.60
2019-04-23T20:54:51.343Z,96.00
2019-04-23T20:57:31.793Z,96.70
2019-04-23T21:02:52.156Z,95.20
2019-04-23T21:05:03.535Z,95.70
2019-04-23T21:07:40.690Z,95.90
2019-04-23T21:10:08.954Z,95.80
2019-04-23T21:12:47.413Z,96.90
2019-04-23T21:15:12.082Z,97.50
2019-04-23T21:17:29.681Z,97.30
2019-04-23T21:20:01.472Z,96.80
2019-04-23T21:27:35.841Z,95.70
2019-04-23T21:32:27.242Z,95.40
2019-04-23T21:35:01.723Z,95.60
2019-04-23T21:37:23.469Z,94.90
2019-04-23T21:40:04.536Z,95.60
2019-04-23T21:42:51.724Z,95.50
2019-04-23T21:45:06.422Z,95.90
2019-04-23T21:47:46.493Z,94.70
2019-04-23T21:52:36.272Z,94.50
2019-04-23T21:55:03.602Z,94.50
2019-04-23T21:57:44.424Z,93.90
2019-04-23T22:00:02.485Z,94.10
2019-04-23T22:02:32.232Z,95.00
2019-04-23T22:05:19.395Z,93.70
2019-04-23T22:07:42.101Z,93.40
2019-04-23T22:09:57.229Z,93.90
2019-04-23T22:12:23.489Z,93.30
2019-04-23T22:15:07.313Z,92.90
2019-04-23T22:17:25.091Z,93.10
2019-04-23T22:20:10.906Z,92.00
2019-04-23T22:22:20.435Z,93.30
2019-04-23T22:24:48.214Z,92.70
2019-04-23T22:27:39.475Z,93.20
2019-04-23T22:29:44.610Z,92.60
2019-04-23T22:32:15.179Z,93.00
2019-04-23T22:34:47.118Z,92.60
2019-04-23T22:37:14.611Z,93.10
2019-04-23T22:39:45.811Z,93.40
2019-04-23T22:42:22.295Z,93.10
2019-04-23T22:44:56.126Z,92.50
2019-04-23T22:47:06.019Z,92.10
2019-04-23T22:49:44.010Z,92.50
2019-04-23T22:52:16.457Z,92.20
2019-04-23T22:54:41.930Z,94.50
2019-04-23T22:57:04.753Z,94.10
2019-04-23T22:59:47.080Z,95.90
2019-04-23T23:02:15.066Z,95.60
2019-04-23T23:04:51.610Z,96.50
2019-04-23T23:07:24.413Z,96.00
2019-04-23T23:12:13.719Z,98.90
2019-04-23T23:14:47.216Z,99.20
2019-04-23T23:24:41.162Z,99.90
2019-04-23T23:27:21.354Z,99.90
2019-04-23T23:29:28.521Z,99.90
2019-04-23T23:34:43.492Z,99.90
2019-04-23T23:37:07.565Z,99.90
2019-04-23T23:39:28.785Z,99.90
2019-04-23T23:47:03.161Z,99.90
2019-04-23T23:49:27.828Z,99.90
2019-04-23T23:51:57.190Z,99.90
2019-04-23T23:57:01.776Z,99.90
2019-04-23T23:59:21.470Z,99.90
